createdAt,value
2017-09-15T00:01:50.929Z,1.90
2017-09-15T00:04:18.324Z,2.00
2017-09-15T00:06:45.631Z,2.40
2017-09-15T00:09:12.973Z,1.83
2017-09-15T00:11:40.343Z,2.10
2017-09-15T00:14:07.653Z,2.87
2017-09-15T00:16:34.958Z,2.40
2017-09-15T00:19:02.260Z,2.57
2017-09-15T00:21:29.595Z,2.90
2017-09-15T00:23:57.169Z,3.13
2017-09-15T00:26:24.455Z,2.23
2017-09-15T00:28:51.827Z,3.17
2017-09-15T00:31:19.151Z,2.60
2017-09-15T00:33:46.463Z,2.13
2017-09-15T00:36:13.764Z,2.50
2017-09-15T00:38:41.076Z,2.60
2017-09-15T00:41:08.417Z,2.67
2017-09-15T00:43:35.752Z,2.30
2017-09-15T00:46:03.075Z,2.00
2017-09-15T00:51:04.322Z,2.60
2017-09-15T00:53:31.642Z,2.50
2017-09-15T00:55:59.014Z,2.47
2017-09-15T00:58:26.350Z,2.83
2017-09-15T01:00:53.637Z,2.33
2017-09-15T01:03:20.987Z,2.17
2017-09-15T01:05:48.300Z,2.67
2017-09-15T01:08:15.615Z,2.47
2017-09-15T01:10:42.939Z,2.17
2017-09-15T01:13:10.246Z,2.03
2017-09-15T01:15:37.526Z,2.23
2017-09-15T01:18:04.837Z,2.33
2017-09-15T01:20:32.111Z,2.13
2017-09-15T01:22:59.432Z,2.00
2017-09-15T01:25:26.735Z,2.80
2017-09-15T01:27:54.084Z,2.77
2017-09-15T01:30:21.411Z,2.37
2017-09-15T01:32:48.747Z,1.90
2017-09-15T01:35:16.027Z,2.93
2017-09-15T01:37:43.365Z,2.53
2017-09-15T01:40:10.684Z,2.53
2017-09-15T01:42:38.015Z,2.30
2017-09-15T01:45:05.307Z,1.77
2017-09-15T01:47:32.636Z,2.27
2017-09-15T01:49:59.973Z,2.00
2017-09-15T01:52:27.309Z,2.13
2017-09-15T01:54:54.607Z,2.73
2017-09-15T01:57:21.950Z,2.40
2017-09-15T01:59:49.250Z,3.10
2017-09-15T02:02:16.543Z,1.87
2017-09-15T02:04:43.885Z,2.30
2017-09-15T02:07:11.260Z,2.17
2017-09-15T02:09:38.586Z,4.00
2017-09-15T02:12:05.942Z,3.33
2017-09-15T02:14:33.250Z,2.20
2017-09-15T02:17:00.643Z,2.20
2017-09-15T02:19:27.989Z,1.83
2017-09-15T02:21:55.300Z,2.30
2017-09-15T02:24:22.643Z,1.73
2017-09-15T02:26:49.930Z,2.13
2017-09-15T02:29:17.730Z,2.37
2017-09-15T02:31:45.064Z,2.60
2017-09-15T02:34:12.363Z,2.27
2017-09-15T02:36:39.668Z,2.33
2017-09-15T02:39:06.994Z,3.43
2017-09-15T02:41:34.393Z,2.00
2017-09-15T02:46:35.464Z,2.00
2017-09-15T02:49:02.761Z,2.00
2017-09-15T02:51:30.145Z,2.53
2017-09-15T02:53:57.461Z,2.33
2017-09-15T02:56:24.853Z,2.80
2017-09-15T02:58:52.161Z,1.60
2017-09-15T03:01:19.482Z,1.80
2017-09-15T03:03:46.782Z,2.40
2017-09-15T03:06:14.159Z,2.53
2017-09-15T03:08:41.407Z,2.00
2017-09-15T03:11:08.808Z,2.10
2017-09-15T03:13:36.085Z,2.50
2017-09-15T03:16:03.451Z,3.67
2017-09-15T03:18:30.796Z,3.13
2017-09-15T03:20:58.095Z,2.07
2017-09-15T03:23:25.419Z,3.50
2017-09-15T03:25:52.736Z,3.50
2017-09-15T03:28:20.050Z,3.30
2017-09-15T03:30:47.325Z,1.93
2017-09-15T03:33:14.735Z,2.47
2017-09-15T03:35:42.032Z,2.87
2017-09-15T03:38:09.390Z,2.83
2017-09-15T03:40:36.700Z,2.90
2017-09-15T03:43:04.001Z,2.67
2017-09-15T03:45:31.351Z,3.90
2017-09-15T03:47:58.686Z,2.70
2017-09-15T03:50:26.014Z,3.30
2017-09-15T03:52:53.300Z,2.57
2017-09-15T03:55:20.597Z,3.10
2017-09-15T03:57:47.871Z,2.63
2017-09-15T04:00:15.199Z,2.63
2017-09-15T04:02:42.469Z,3.10
2017-09-15T04:05:09.816Z,3.70
2017-09-15T04:07:37.104Z,2.60
2017-09-15T04:10:04.402Z,2.60
2017-09-15T04:12:31.724Z,3.20
2017-09-15T04:14:59.054Z,3.43
2017-09-15T04:17:26.463Z,2.50
2017-09-15T04:19:53.835Z,3.50
2017-09-15T04:22:21.099Z,3.07
2017-09-15T04:24:48.432Z,2.70
2017-09-15T04:27:15.712Z,2.87
2017-09-15T04:29:43.044Z,3.00
2017-09-15T04:32:10.356Z,3.20
2017-09-15T04:34:37.647Z,3.20
2017-09-15T04:37:05.042Z,3.20
2017-09-15T04:39:32.324Z,3.37
2017-09-15T04:41:59.668Z,3.10
2017-09-15T04:44:26.983Z,3.63
2017-09-15T04:46:54.312Z,3.37
2017-09-15T04:49:21.652Z,3.90
2017-09-15T04:51:48.998Z,3.03
2017-09-15T04:54:16.282Z,3.00
2017-09-15T04:56:43.612Z,4.00
2017-09-15T04:59:10.912Z,3.50
2017-09-15T05:01:38.251Z,3.30
2017-09-15T05:04:05.531Z,3.17
2017-09-15T05:06:32.832Z,3.23
2017-09-15T05:09:00.199Z,3.47
2017-09-15T05:11:27.492Z,3.30
2017-09-15T05:13:54.805Z,3.13
2017-09-15T05:16:22.154Z,3.97
2017-09-15T05:18:49.475Z,3.33
2017-09-15T05:21:16.740Z,3.47
2017-09-15T05:23:44.044Z,2.60
2017-09-15T05:26:11.343Z,3.40
2017-09-15T05:28:38.680Z,3.90
2017-09-15T05:31:06.028Z,2.80
2017-09-15T05:33:33.403Z,4.13
2017-09-15T05:36:00.715Z,3.10
2017-09-15T05:38:28.062Z,3.30
2017-09-15T05:40:55.405Z,3.27
2017-09-15T05:43:22.701Z,2.97
2017-09-15T05:45:50.010Z,2.50
2017-09-15T05:48:17.332Z,3.97
2017-09-15T05:50:44.647Z,3.33
2017-09-15T05:53:11.951Z,3.50
2017-09-15T05:55:39.314Z,3.27
2017-09-15T05:58:06.643Z,3.30
2017-09-15T06:00:33.962Z,3.90
2017-09-15T06:03:01.262Z,3.70
2017-09-15T06:05:28.591Z,3.53
2017-09-15T06:07:55.902Z,3.70
2017-09-15T06:10:23.219Z,3.40
2017-09-15T06:12:50.530Z,3.63
2017-09-15T06:15:17.924Z,3.77
2017-09-15T06:17:45.208Z,4.53
2017-09-15T06:20:12.529Z,3.30
2017-09-15T06:22:39.828Z,2.80
2017-09-15T06:25:07.104Z,2.77
2017-09-15T06:27:34.431Z,4.20
2017-09-15T06:30:01.722Z,3.50
2017-09-15T06:32:29.003Z,3.33
2017-09-15T06:34:56.346Z,3.50
2017-09-15T06:37:23.657Z,3.77
2017-09-15T06:39:50.958Z,4.50
2017-09-15T06:42:18.351Z,4.13
2017-09-15T06:44:45.651Z,5.00
2017-09-15T06:47:13.015Z,4.40
2017-09-15T06:49:40.348Z,5.60
2017-09-15T06:52:07.696Z,6.00
2017-09-15T06:54:34.991Z,6.07
2017-09-15T06:57:02.314Z,6.13
2017-09-15T06:59:29.634Z,6.83
2017-09-15T07:01:56.956Z,5.07
2017-09-15T07:04:24.231Z,7.00
2017-09-15T07:06:51.580Z,5.90
2017-09-15T07:09:18.897Z,5.53
2017-09-15T07:11:46.180Z,7.30
2017-09-15T07:14:13.555Z,7.60
2017-09-15T07:16:40.857Z,7.10
2017-09-15T07:19:08.142Z,8.80
2017-09-15T07:21:35.755Z,9.10
2017-09-15T07:24:03.103Z,7.60
2017-09-15T07:26:30.486Z,8.57
2017-09-15T07:28:58.099Z,10.70
2017-09-15T07:31:25.412Z,8.33
2017-09-15T07:33:52.834Z,8.03
2017-09-15T07:36:20.113Z,8.33
2017-09-15T07:38:47.644Z,8.63
2017-09-15T07:41:14.937Z,8.03
2017-09-15T07:43:42.310Z,9.93
2017-09-15T07:46:09.652Z,8.57
2017-09-15T07:48:36.993Z,8.50
2017-09-15T07:51:04.306Z,9.90
2017-09-15T07:53:31.609Z,7.33
2017-09-15T07:55:58.967Z,8.70
2017-09-15T07:58:26.340Z,8.60
2017-09-15T08:00:53.835Z,7.60
2017-09-15T08:03:21.186Z,7.90
2017-09-15T08:05:49.363Z,8.07
2017-09-15T08:08:16.914Z,6.90
2017-09-15T08:10:44.251Z,7.80
2017-09-15T08:13:11.555Z,8.50
2017-09-15T08:15:38.861Z,6.40
2017-09-15T08:18:06.232Z,8.33
2017-09-15T08:20:33.539Z,7.60
2017-09-15T08:23:00.817Z,7.43
2017-09-15T08:25:28.209Z,7.10
2017-09-15T08:27:55.486Z,9.00
2017-09-15T08:30:22.780Z,8.43
2017-09-15T08:32:50.087Z,7.07
2017-09-15T08:35:17.411Z,7.23
2017-09-15T08:37:44.731Z,8.23
2017-09-15T08:40:12.062Z,9.30
2017-09-15T08:42:39.368Z,8.93
2017-09-15T08:45:06.705Z,9.30
2017-09-15T08:47:33.973Z,8.50
2017-09-15T08:50:01.389Z,8.37
2017-09-15T08:52:28.727Z,10.30
2017-09-15T08:54:56.020Z,9.37
2017-09-15T08:57:23.356Z,9.70
2017-09-15T08:59:50.667Z,9.70
2017-09-15T09:02:17.960Z,9.37
2017-09-15T09:04:45.268Z,8.93
2017-09-15T09:07:12.575Z,9.37
2017-09-15T09:09:39.896Z,7.53
2017-09-15T09:12:07.647Z,8.63
2017-09-15T09:14:34.972Z,8.17
2017-09-15T09:17:02.248Z,9.07
2017-09-15T09:19:29.523Z,8.90
2017-09-15T09:21:56.846Z,8.67
2017-09-15T09:24:24.146Z,8.00
2017-09-15T09:26:51.418Z,9.77
2017-09-15T09:29:18.751Z,9.70
2017-09-15T09:31:46.074Z,9.10
2017-09-15T09:34:13.448Z,8.47
2017-09-15T09:36:40.778Z,9.10
2017-09-15T09:39:08.061Z,9.50
2017-09-15T09:41:35.373Z,8.43
2017-09-15T09:44:02.686Z,8.97
2017-09-15T09:46:29.947Z,8.17
2017-09-15T09:48:57.421Z,8.10
2017-09-15T09:51:24.695Z,8.00
2017-09-15T09:53:51.998Z,8.33
2017-09-15T09:56:19.305Z,9.10
2017-09-15T09:58:46.600Z,7.93
2017-09-15T10:01:13.929Z,8.80
2017-09-15T10:03:41.221Z,8.20
2017-09-15T10:06:08.520Z,7.90
2017-09-15T10:08:35.860Z,7.93
2017-09-15T10:11:03.173Z,9.10
2017-09-15T10:13:30.640Z,9.03
2017-09-15T10:15:57.925Z,8.73
2017-09-15T10:18:25.225Z,9.93
2017-09-15T10:20:54.124Z,8.87
2017-09-15T10:23:21.892Z,8.07
2017-09-15T10:25:49.179Z,8.80
2017-09-15T10:28:16.454Z,7.87
2017-09-15T10:30:43.824Z,8.10
2017-09-15T10:33:11.117Z,7.70
2017-09-15T10:35:38.423Z,9.57
2017-09-15T10:38:05.716Z,7.80
2017-09-15T10:40:33.016Z,11.27
2017-09-15T10:43:00.355Z,8.07
2017-09-15T10:45:27.652Z,6.30
2017-09-15T10:47:54.953Z,6.33
2017-09-15T10:50:22.257Z,6.37
2017-09-15T10:52:49.553Z,6.70
2017-09-15T10:55:16.847Z,6.80
2017-09-15T10:57:49.842Z,5.83
2017-09-15T11:00:17.172Z,6.03
2017-09-15T11:02:44.490Z,5.80
2017-09-15T11:05:11.756Z,5.20
2017-09-15T11:07:39.089Z,4.90
2017-09-15T11:10:06.355Z,4.87
2017-09-15T11:12:33.656Z,5.53
2017-09-15T11:15:01.006Z,5.87
2017-09-15T11:17:28.590Z,4.87
2017-09-15T11:19:55.875Z,4.67
2017-09-15T11:22:23.189Z,4.20
2017-09-15T11:24:50.471Z,5.70
2017-09-15T11:27:17.747Z,5.60
2017-09-15T11:29:45.035Z,3.70
2017-09-15T11:32:12.322Z,3.80
2017-09-15T11:34:39.701Z,4.17
2017-09-15T11:37:07.001Z,6.40
2017-09-15T11:39:34.284Z,3.80
2017-09-15T11:42:01.591Z,3.17
2017-09-15T11:44:28.885Z,3.43
2017-09-15T11:46:56.188Z,3.20
2017-09-15T11:49:23.470Z,3.50
2017-09-15T11:51:50.768Z,2.40
2017-09-15T11:54:18.063Z,2.70
2017-09-15T11:56:45.323Z,2.80
2017-09-15T11:59:12.611Z,2.83
2017-09-15T12:01:39.906Z,2.83
2017-09-15T12:04:07.199Z,2.40
2017-09-15T12:06:34.483Z,2.60
2017-09-15T12:09:01.820Z,2.93
2017-09-15T12:11:29.102Z,2.67
2017-09-15T12:13:56.358Z,2.80
2017-09-15T12:16:23.649Z,3.30
2017-09-15T12:18:50.923Z,2.80
2017-09-15T12:21:18.241Z,3.17
2017-09-15T12:23:45.516Z,2.30
2017-09-15T12:26:12.800Z,2.73
2017-09-15T12:28:40.148Z,2.77
2017-09-15T12:31:07.411Z,2.20
2017-09-15T12:33:34.679Z,1.90
2017-09-15T12:36:01.997Z,1.67
2017-09-15T12:38:29.295Z,2.23
2017-09-15T12:40:56.564Z,2.00
2017-09-15T12:43:23.867Z,2.00
2017-09-15T12:45:51.131Z,2.07
2017-09-15T12:48:18.427Z,1.87
2017-09-15T12:50:45.760Z,1.40
2017-09-15T12:53:13.018Z,2.13
2017-09-15T12:55:40.297Z,1.73
2017-09-15T12:58:07.612Z,2.13
2017-09-15T13:00:34.878Z,2.17
2017-09-15T13:03:02.156Z,1.70
2017-09-15T13:05:29.454Z,2.13
2017-09-15T13:07:56.731Z,1.97
2017-09-15T13:10:24.002Z,2.27
2017-09-15T13:12:51.302Z,2.30
2017-09-15T13:15:18.591Z,2.40
2017-09-15T13:17:45.891Z,2.17
2017-09-15T13:20:13.164Z,2.00
2017-09-15T13:22:40.438Z,1.90
2017-09-15T13:25:07.725Z,2.10
2017-09-15T13:27:34.986Z,2.60
2017-09-15T13:30:02.291Z,2.00
2017-09-15T13:32:29.563Z,2.20
2017-09-15T13:34:56.844Z,2.57
2017-09-15T13:37:24.160Z,2.70
2017-09-15T13:39:51.416Z,2.37
2017-09-15T13:42:18.712Z,2.20
2017-09-15T13:44:46.004Z,2.10
2017-09-15T13:47:13.320Z,4.20
2017-09-15T13:49:40.602Z,2.27
2017-09-15T13:52:08.098Z,2.40
2017-09-15T13:54:35.419Z,5.50
2017-09-15T13:57:02.688Z,6.73
2017-09-15T13:59:29.960Z,4.80
2017-09-15T14:01:57.280Z,16.73
2017-09-15T14:04:24.699Z,2.80
2017-09-15T14:06:52.030Z,5.97
2017-09-15T14:09:19.312Z,2.63
2017-09-15T14:11:46.914Z,2.60
2017-09-15T14:14:14.891Z,2.40
2017-09-15T14:16:42.541Z,2.50
2017-09-15T14:19:10.633Z,3.63
2017-09-15T14:21:37.966Z,2.80
2017-09-15T14:24:05.258Z,2.80
2017-09-15T14:26:32.521Z,2.40
2017-09-15T14:28:59.827Z,3.23
2017-09-15T14:31:27.140Z,2.80
2017-09-15T14:33:54.456Z,1.67
2017-09-15T14:36:21.720Z,1.03
2017-09-15T14:38:49.015Z,1.47
2017-09-15T14:41:16.315Z,1.20
2017-09-15T14:43:43.595Z,3.30
2017-09-15T14:46:10.892Z,1.70
2017-09-15T14:48:38.160Z,1.50
2017-09-15T14:51:05.420Z,1.30
2017-09-15T14:53:32.719Z,1.50
2017-09-15T14:55:59.983Z,1.40
2017-09-15T14:58:27.283Z,1.70
2017-09-15T15:00:54.824Z,1.00
2017-09-15T15:03:22.197Z,1.40
2017-09-15T15:05:49.501Z,1.60
2017-09-15T15:08:16.777Z,1.13
2017-09-15T15:10:44.053Z,2.00
2017-09-15T15:13:11.376Z,1.60
2017-09-15T15:15:38.631Z,1.57
2017-09-15T15:18:05.891Z,2.17
2017-09-15T15:20:33.195Z,2.23
2017-09-15T15:23:00.491Z,2.00
2017-09-15T15:25:27.772Z,1.80
2017-09-15T15:27:55.039Z,1.43
2017-09-15T15:30:22.347Z,1.53
2017-09-15T15:32:49.624Z,1.40
2017-09-15T15:35:16.894Z,1.90
2017-09-15T15:37:44.200Z,1.60
2017-09-15T15:40:11.460Z,1.47
2017-09-15T15:42:38.770Z,1.60
2017-09-15T15:45:06.087Z,1.80
2017-09-15T15:47:33.388Z,1.90
2017-09-15T15:50:00.679Z,1.40
2017-09-15T15:52:27.950Z,1.90
2017-09-15T15:54:55.274Z,1.63
2017-09-15T15:57:22.560Z,1.80
2017-09-15T15:59:49.866Z,1.57
2017-09-15T16:02:17.152Z,1.40
2017-09-15T16:04:44.430Z,1.40
2017-09-15T16:07:11.727Z,1.60
2017-09-15T16:09:39.014Z,1.67
2017-09-15T16:12:06.286Z,1.80
2017-09-15T16:14:33.607Z,1.60
2017-09-15T16:17:00.904Z,1.40
2017-09-15T16:19:28.186Z,1.57
2017-09-15T16:21:55.493Z,1.20
2017-09-15T16:24:22.767Z,1.20
2017-09-15T16:26:50.042Z,1.57
2017-09-15T16:29:17.332Z,1.67
2017-09-15T16:31:44.606Z,1.23
2017-09-15T16:34:11.908Z,1.20
2017-09-15T16:36:39.220Z,1.90
2017-09-15T16:39:12.177Z,2.43
2017-09-15T16:41:45.436Z,2.97
2017-09-15T16:44:18.563Z,2.13
2017-09-15T16:46:51.523Z,3.27
2017-09-15T16:49:24.729Z,2.10
2017-09-15T16:51:52.033Z,1.90
2017-09-15T16:54:19.323Z,3.00
2017-09-15T16:56:46.612Z,1.90
2017-09-15T16:59:13.911Z,1.70
2017-09-15T17:01:41.178Z,1.60
2017-09-15T17:04:08.459Z,1.83
2017-09-15T17:06:35.769Z,2.03
2017-09-15T17:09:03.065Z,1.60
2017-09-15T17:11:30.344Z,1.83
2017-09-15T17:13:57.649Z,2.53
2017-09-15T17:16:25.274Z,1.90
2017-09-15T17:18:52.605Z,2.67
2017-09-15T17:21:19.844Z,2.70
2017-09-15T17:23:47.477Z,1.87
2017-09-15T17:26:14.748Z,2.13
2017-09-15T17:28:42.099Z,1.87
2017-09-15T17:31:09.386Z,2.20
2017-09-15T17:33:36.652Z,2.00
2017-09-15T17:36:03.934Z,1.90
2017-09-15T17:38:31.220Z,2.43
2017-09-15T17:40:58.535Z,2.63
2017-09-15T17:43:25.841Z,2.20
2017-09-15T17:45:53.197Z,2.80
2017-09-15T17:48:20.480Z,2.70
2017-09-15T17:50:47.807Z,2.50
2017-09-15T17:53:15.077Z,2.20
2017-09-15T17:55:42.362Z,2.00
2017-09-15T17:58:09.651Z,1.87
2017-09-15T18:00:36.962Z,1.50
2017-09-15T18:03:04.271Z,1.47
2017-09-15T18:05:31.556Z,2.23
2017-09-15T18:07:58.843Z,2.00
2017-09-15T18:10:26.190Z,2.13
2017-09-15T18:12:53.484Z,1.30
2017-09-15T18:15:20.823Z,1.73
2017-09-15T18:17:48.097Z,2.10
2017-09-15T18:20:15.370Z,2.03
2017-09-15T18:22:43.275Z,1.97
2017-09-15T18:25:11.824Z,2.07
2017-09-15T18:27:39.297Z,2.93
2017-09-15T18:30:06.568Z,1.63
2017-09-15T18:32:33.839Z,1.87
2017-09-15T18:35:01.344Z,1.53
2017-09-15T18:37:28.801Z,2.03
2017-09-15T18:39:56.125Z,1.90
2017-09-15T18:42:23.406Z,2.20
2017-09-15T18:44:50.732Z,1.60
2017-09-15T18:47:18.066Z,2.10
2017-09-15T18:49:45.364Z,2.20
2017-09-15T18:52:12.632Z,1.90
2017-09-15T18:54:39.919Z,2.40
2017-09-15T18:57:07.223Z,2.40
2017-09-15T18:59:34.543Z,2.13
2017-09-15T19:02:01.856Z,1.77
2017-09-15T19:04:29.171Z,1.70
2017-09-15T19:06:56.464Z,1.60
2017-09-15T19:09:23.771Z,2.10
2017-09-15T19:11:51.052Z,2.10
2017-09-15T19:14:18.355Z,1.60
2017-09-15T19:16:45.755Z,1.30
2017-09-15T19:19:13.862Z,1.63
2017-09-15T19:21:41.957Z,1.53
2017-09-15T19:24:09.608Z,1.73
2017-09-15T19:26:37.197Z,1.87
2017-09-15T19:29:04.737Z,1.67
2017-09-15T19:31:32.362Z,2.20
2017-09-15T19:33:59.879Z,1.90
2017-09-15T19:36:27.852Z,1.67
2017-09-15T19:38:55.461Z,2.33
2017-09-15T19:41:22.789Z,1.80
2017-09-15T19:43:50.123Z,1.70
2017-09-15T19:46:17.441Z,1.60
2017-09-15T19:48:44.764Z,1.80
2017-09-15T19:51:12.046Z,1.70
2017-09-15T19:53:39.324Z,1.70
2017-09-15T19:56:06.677Z,1.93
2017-09-15T19:58:33.986Z,1.40
2017-09-15T20:01:01.261Z,2.73
2017-09-15T20:03:28.643Z,1.70
2017-09-15T20:05:55.922Z,25.10
2017-09-15T20:08:24.434Z,27.10
2017-09-15T20:10:52.107Z,43.73
2017-09-15T20:13:20.263Z,55.33
2017-09-15T20:15:48.382Z,94.20
2017-09-15T20:18:16.424Z,13.87
2017-09-15T20:20:44.027Z,11.93
2017-09-15T20:23:11.705Z,60.70
2017-09-15T20:25:39.057Z,54.33
2017-09-15T20:28:06.373Z,68.50
2017-09-15T20:30:33.702Z,54.07
2017-09-15T20:33:00.985Z,23.03
2017-09-15T20:35:28.310Z,87.33
2017-09-15T20:37:55.634Z,14.03
2017-09-15T20:40:22.932Z,7.50
2017-09-15T20:42:50.492Z,10.57
2017-09-15T20:45:18.144Z,5.80
2017-09-15T20:47:45.804Z,6.70
2017-09-15T20:50:13.578Z,6.67
2017-09-15T20:52:41.242Z,8.87
2017-09-15T20:55:08.998Z,11.67
2017-09-15T20:57:36.708Z,14.73
2017-09-15T21:00:04.098Z,7.50
2017-09-15T21:02:31.436Z,3.47
2017-09-15T21:04:58.804Z,3.17
2017-09-15T21:07:26.071Z,1.90
2017-09-15T21:09:53.548Z,2.33
2017-09-15T21:12:21.042Z,1.60
2017-09-15T21:14:48.672Z,2.20
2017-09-15T21:17:16.277Z,1.80
2017-09-15T21:19:44.028Z,2.10
2017-09-15T21:22:11.612Z,1.90
2017-09-15T21:24:39.425Z,3.03
2017-09-15T21:27:07.336Z,2.03
2017-09-15T21:29:34.836Z,2.07
2017-09-15T21:32:02.439Z,3.03
2017-09-15T21:34:30.034Z,1.80
2017-09-15T21:36:58.417Z,1.90
2017-09-15T21:39:26.505Z,1.90
2017-09-15T21:41:54.221Z,2.00
2017-09-15T21:44:21.770Z,1.83
2017-09-15T21:46:49.315Z,1.80
2017-09-15T21:49:16.837Z,1.70
2017-09-15T21:51:44.396Z,2.10
2017-09-15T21:54:11.959Z,2.60
2017-09-15T21:56:39.523Z,1.80
2017-09-15T21:59:07.167Z,2.23
2017-09-15T22:01:34.620Z,1.93
2017-09-15T22:04:08.064Z,1.47
2017-09-15T22:06:35.740Z,2.37
2017-09-15T22:09:03.493Z,2.00
2017-09-15T22:11:31.163Z,2.07
2017-09-15T22:13:58.842Z,1.97
2017-09-15T22:16:27.097Z,1.60
2017-09-15T22:18:54.773Z,2.20
2017-09-15T22:21:22.101Z,2.10
2017-09-15T22:23:49.445Z,2.23
2017-09-15T22:26:16.715Z,1.90
2017-09-15T22:28:44.060Z,1.90
2017-09-15T22:31:11.406Z,2.50
2017-09-15T22:33:38.763Z,2.10
2017-09-15T22:36:06.119Z,2.30
2017-09-15T22:38:33.464Z,2.20
2017-09-15T22:41:00.960Z,1.67
2017-09-15T22:43:28.271Z,2.00
2017-09-15T22:45:55.624Z,2.07
2017-09-15T22:48:22.969Z,2.20
2017-09-15T22:50:50.291Z,2.27
2017-09-15T22:53:17.630Z,1.80
2017-09-15T22:55:44.964Z,2.33
2017-09-15T22:58:13.442Z,2.33
2017-09-15T23:00:41.901Z,2.00
2017-09-15T23:03:09.269Z,2.20
2017-09-15T23:05:36.590Z,1.73
2017-09-15T23:08:03.900Z,2.17
2017-09-15T23:10:31.250Z,2.17
2017-09-15T23:12:58.534Z,4.10
2017-09-15T23:15:25.871Z,2.40
2017-09-15T23:17:53.203Z,2.43
2017-09-15T23:20:21.007Z,1.70
2017-09-15T23:22:48.499Z,2.27
2017-09-15T23:25:15.814Z,1.63
2017-09-15T23:27:43.358Z,2.23
2017-09-15T23:30:11.147Z,2.30
2017-09-15T23:32:38.814Z,2.30
2017-09-15T23:35:08.116Z,2.10
2017-09-15T23:37:35.404Z,1.30
2017-09-15T23:40:03.111Z,1.80
2017-09-15T23:42:30.795Z,1.90
2017-09-15T23:44:58.125Z,1.60
2017-09-15T23:47:25.445Z,1.70
2017-09-15T23:49:53.880Z,1.80
2017-09-15T23:52:21.656Z,1.60
2017-09-15T23:54:50.236Z,2.00
2017-09-15T23:57:18.306Z,1.63
2017-09-15T23:59:47.534Z,2.17
